createdAt,value
2023-04-19T00:00:57.937Z,47.98
2023-04-19T00:03:28.318Z,48.00
2023-04-19T00:06:02.692Z,47.28
2023-04-19T00:08:32.742Z,47.21
2023-04-19T00:11:03.105Z,46.83
2023-04-19T00:13:33.300Z,46.99
2023-04-19T00:16:03.511Z,47.20
2023-04-19T00:18:33.542Z,47.40
2023-04-19T00:21:06.919Z,47.38
2023-04-19T00:23:37.408Z,47.15
2023-04-19T00:26:07.949Z,46.64
2023-04-19T00:28:40.824Z,46.08
2023-04-19T00:31:13.297Z,46.08
2023-04-19T00:33:45.704Z,46.47
2023-04-19T00:36:21.132Z,46.15
2023-04-19T00:38:51.884Z,45.79
2023-04-19T00:41:22.331Z,45.29
2023-04-19T00:43:53.825Z,45.22
2023-04-19T00:46:24.643Z,45.61
2023-04-19T00:48:56.040Z,45.58
2023-04-19T00:51:30.044Z,45.88
2023-04-19T00:54:01.218Z,45.33
2023-04-19T00:56:37.140Z,45.58
2023-04-19T00:59:07.637Z,45.46
2023-04-19T01:01:38.483Z,45.61
2023-04-19T01:04:09.358Z,46.04
2023-04-19T01:06:45.519Z,45.73
2023-04-19T01:09:15.605Z,45.77
2023-04-19T01:11:45.755Z,45.88
2023-04-19T01:14:18.226Z,45.85
2023-04-19T01:16:50.852Z,45.84
2023-04-19T01:19:25.050Z,46.17
2023-04-19T01:22:01.238Z,46.13
2023-04-19T01:24:35.660Z,46.03
2023-04-19T01:27:06.374Z,46.33
2023-04-19T01:29:36.880Z,46.20
2023-04-19T01:32:08.126Z,46.38
2023-04-19T01:34:39.793Z,46.39
2023-04-19T01:37:13.115Z,46.23
2023-04-19T01:39:51.220Z,46.66
2023-04-19T01:42:22.194Z,46.64
2023-04-19T01:44:52.379Z,46.54
2023-04-19T01:47:23.194Z,46.87
2023-04-19T01:49:53.663Z,47.17
2023-04-19T01:52:24.096Z,47.09
2023-04-19T01:54:56.850Z,47.17
2023-04-19T01:57:27.216Z,47.55
2023-04-19T01:59:57.553Z,47.55
2023-04-19T02:02:27.834Z,47.74
2023-04-19T02:04:57.939Z,47.80
2023-04-19T02:07:28.190Z,47.92
2023-04-19T02:10:03.967Z,48.07
2023-04-19T02:12:34.544Z,48.21
2023-04-19T02:15:07.193Z,48.09
2023-04-19T02:17:39.118Z,48.35
2023-04-19T02:20:13.283Z,48.14
2023-04-19T02:22:44.040Z,48.78
2023-04-19T02:25:20.115Z,48.79
2023-04-19T02:27:50.208Z,49.06
2023-04-19T02:30:22.023Z,49.28
2023-04-19T02:32:55.191Z,49.31
2023-04-19T02:35:28.676Z,49.17
2023-04-19T02:38:02.423Z,49.42
2023-04-19T02:40:35.363Z,49.17
2023-04-19T02:43:06.734Z,49.23
2023-04-19T02:45:37.458Z,49.61
2023-04-19T02:48:08.590Z,49.30
2023-04-19T02:50:41.460Z,49.60
2023-04-19T02:53:11.839Z,49.68
2023-04-19T02:55:45.256Z,49.91
2023-04-19T02:58:19.852Z,50.28
2023-04-19T03:01:02.074Z,50.56
2023-04-19T03:03:32.411Z,51.09
2023-04-19T03:06:02.582Z,50.95
2023-04-19T03:08:34.411Z,51.22
2023-04-19T03:11:10.232Z,51.13
2023-04-19T03:13:40.899Z,51.00
2023-04-19T03:16:12.092Z,51.28
2023-04-19T03:18:42.812Z,51.21
2023-04-19T03:21:13.838Z,51.32
2023-04-19T03:23:51.576Z,51.19
2023-04-19T03:26:25.266Z,51.23
2023-04-19T03:28:57.384Z,51.11
2023-04-19T03:31:37.296Z,51.49
2023-04-19T03:34:08.598Z,51.44
2023-04-19T03:36:43.805Z,51.76
2023-04-19T03:39:14.010Z,51.93
2023-04-19T03:41:49.014Z,52.44
2023-04-19T03:44:29.745Z,52.58
2023-04-19T03:46:59.842Z,52.51
2023-04-19T03:49:35.341Z,52.61
2023-04-19T03:52:08.194Z,52.51
2023-04-19T03:54:38.737Z,52.51
2023-04-19T03:57:20.653Z,52.54
2023-04-19T03:59:51.047Z,52.35
2023-04-19T04:02:22.652Z,52.23
2023-04-19T04:04:56.815Z,52.55
2023-04-19T04:07:27.581Z,52.30
2023-04-19T04:09:57.627Z,52.33
2023-04-19T04:12:30.649Z,52.40
2023-04-19T04:15:02.615Z,52.69
2023-04-19T04:17:34.487Z,52.77
2023-04-19T04:20:07.637Z,52.84
2023-04-19T04:22:39.158Z,52.79
2023-04-19T04:25:11.568Z,52.95
2023-04-19T04:27:45.874Z,53.07
2023-04-19T04:30:21.273Z,52.57
2023-04-19T04:32:52.557Z,52.33
2023-04-19T04:35:22.949Z,52.21
2023-04-19T04:38:00.053Z,51.65
2023-04-19T04:40:30.814Z,51.62
2023-04-19T04:43:04.544Z,51.08
2023-04-19T04:45:38.018Z,50.49
2023-04-19T04:48:09.349Z,50.27
2023-04-19T04:50:42.117Z,49.97
2023-04-19T04:53:13.191Z,49.54
2023-04-19T04:55:45.527Z,49.14
2023-04-19T04:58:20.549Z,49.30
2023-04-19T05:01:20.471Z,49.18
2023-04-19T05:03:53.379Z,49.10
2023-04-19T05:06:23.748Z,48.96
2023-04-19T05:08:56.979Z,48.43
2023-04-19T05:11:37.021Z,48.34
2023-04-19T05:14:12.990Z,48.16
2023-04-19T05:16:43.541Z,48.12
2023-04-19T05:19:14.382Z,47.39
2023-04-19T05:21:51.777Z,46.81
2023-04-19T05:24:24.826Z,46.77
2023-04-19T05:26:58.826Z,46.54
2023-04-19T05:29:34.976Z,46.07
2023-04-19T05:32:09.461Z,45.55
2023-04-19T05:34:51.611Z,44.94
2023-04-19T05:37:24.397Z,45.01
2023-04-19T05:39:57.511Z,44.38
2023-04-19T05:42:29.181Z,44.67
2023-04-19T05:45:06.151Z,44.33
2023-04-19T05:47:38.493Z,43.81
2023-04-19T05:50:32.497Z,43.54
2023-04-19T05:53:32.694Z,43.09
2023-04-19T05:56:03.154Z,42.58
2023-04-19T05:58:38.556Z,42.34
2023-04-19T06:01:14.838Z,42.48
2023-04-19T06:03:45.253Z,41.84
2023-04-19T06:06:16.030Z,41.04
2023-04-19T06:08:51.540Z,41.10
2023-04-19T06:11:38.794Z,40.86
2023-04-19T06:14:21.116Z,40.64
2023-04-19T06:16:57.619Z,39.65
2023-04-19T06:19:28.608Z,39.98
2023-04-19T06:21:58.767Z,38.84
2023-04-19T06:24:28.892Z,39.13
2023-04-19T06:26:59.715Z,38.88
2023-04-19T06:29:29.909Z,38.19
2023-04-19T06:32:02.767Z,37.98
2023-04-19T06:34:33.181Z,37.65
2023-04-19T06:37:04.113Z,37.40
2023-04-19T06:39:34.611Z,37.68
2023-04-19T06:42:05.723Z,37.03
2023-04-19T06:44:37.407Z,36.78
2023-04-19T06:47:10.263Z,35.84
2023-04-19T06:49:40.509Z,34.99
2023-04-19T06:52:10.702Z,35.30
2023-04-19T06:54:41.092Z,34.28
2023-04-19T06:57:11.340Z,33.98
2023-04-19T06:59:41.475Z,33.35
2023-04-19T07:02:14.309Z,33.18
2023-04-19T07:04:59.274Z,32.99
2023-04-19T07:07:29.387Z,31.44
2023-04-19T07:10:02.112Z,31.70
2023-04-19T07:12:32.760Z,30.97
2023-04-19T07:15:02.876Z,30.95
2023-04-19T07:17:37.941Z,31.56
2023-04-19T07:20:09.606Z,31.14
2023-04-19T07:22:40.248Z,29.97
2023-04-19T07:25:11.823Z,30.18
2023-04-19T07:27:42.256Z,29.36
2023-04-19T07:30:13.259Z,28.87
2023-04-19T07:32:46.736Z,29.13
2023-04-19T07:35:16.925Z,28.52
2023-04-19T07:37:47.038Z,27.66
2023-04-19T07:40:17.388Z,29.69
2023-04-19T07:42:47.703Z,28.59
2023-04-19T07:45:18.233Z,26.58
2023-04-19T07:47:51.169Z,27.29
2023-04-19T07:50:23.181Z,26.47
2023-04-19T07:52:53.526Z,26.92
2023-04-19T07:55:24.070Z,26.11
2023-04-19T07:57:54.211Z,25.83
2023-04-19T08:00:24.486Z,25.72
2023-04-19T08:02:57.579Z,25.74
2023-04-19T08:05:27.999Z,25.20
2023-04-19T08:07:58.588Z,25.35
2023-04-19T08:10:30.541Z,25.41
2023-04-19T08:13:05.120Z,25.84
2023-04-19T08:18:12.204Z,23.79
2023-04-19T08:20:42.768Z,23.55
2023-04-19T08:23:22.398Z,23.63
2023-04-19T08:25:55.991Z,23.67
2023-04-19T08:28:26.393Z,23.92
2023-04-19T08:30:57.853Z,23.69
2023-04-19T08:33:31.740Z,23.52
2023-04-19T08:36:02.331Z,22.72
2023-04-19T08:38:32.553Z,22.71
2023-04-19T08:41:03.983Z,23.45
2023-04-19T08:43:39.890Z,23.96
2023-04-19T08:46:14.871Z,25.43
2023-04-19T08:48:49.573Z,25.82
2023-04-19T08:51:20.668Z,26.64
2023-04-19T08:53:52.300Z,25.81
2023-04-19T08:56:34.882Z,24.23
2023-04-19T09:01:44.334Z,23.34
2023-04-19T09:04:35.828Z,23.25
2023-04-19T09:07:08.433Z,23.55
2023-04-19T09:09:52.030Z,23.90
2023-04-19T09:12:27.272Z,23.86
2023-04-19T09:15:01.671Z,23.34
2023-04-19T09:17:34.381Z,22.65
2023-04-19T09:20:08.685Z,22.38
2023-04-19T09:22:38.918Z,23.16
2023-04-19T09:27:43.081Z,24.99
2023-04-19T09:30:21.011Z,25.50
2023-04-19T09:33:01.043Z,26.29
2023-04-19T09:35:43.218Z,26.94
2023-04-19T09:38:13.900Z,25.62
2023-04-19T09:40:45.775Z,24.32
2023-04-19T09:43:45.108Z,23.97
2023-04-19T09:46:06.193Z,23.00
2023-04-19T09:48:37.249Z,22.05
2023-04-19T09:51:13.792Z,21.87
2023-04-19T09:53:46.043Z,22.01
2023-04-19T09:56:16.208Z,22.17
2023-04-19T09:58:51.073Z,21.21
2023-04-19T10:01:26.946Z,21.47
2023-04-19T10:04:03.525Z,20.69
2023-04-19T10:07:07.044Z,20.18
2023-04-19T10:09:37.653Z,20.38
2023-04-19T10:12:38.538Z,20.30
2023-04-19T10:15:03.325Z,20.25
2023-04-19T10:17:34.140Z,19.95
2023-04-19T10:20:10.798Z,19.95
2023-04-19T10:22:43.839Z,18.90
2023-04-19T10:25:16.071Z,19.26
2023-04-19T10:27:49.215Z,19.30
2023-04-19T10:30:23.402Z,19.71
2023-04-19T10:32:56.851Z,20.09
2023-04-19T10:35:29.532Z,20.45
2023-04-19T10:38:10.666Z,21.16
2023-04-19T10:41:05.761Z,21.42
2023-04-19T10:43:36.961Z,20.77
2023-04-19T10:46:10.715Z,20.25
2023-04-19T10:48:44.323Z,19.71
2023-04-19T10:51:19.382Z,20.00
2023-04-19T10:53:54.639Z,20.69
2023-04-19T10:56:48.303Z,20.88
2023-04-19T10:59:25.186Z,20.95
2023-04-19T11:01:58.585Z,21.58
2023-04-19T11:05:06.683Z,21.43
2023-04-19T11:07:41.460Z,21.03
2023-04-19T11:10:14.747Z,20.00
2023-04-19T11:12:47.781Z,19.45
2023-04-19T11:15:17.909Z,19.94
2023-04-19T11:20:18.786Z,20.84
2023-04-19T11:22:50.621Z,21.39
2023-04-19T11:25:24.892Z,22.08
2023-04-19T11:27:57.551Z,22.75
2023-04-19T11:30:35.524Z,23.67
2023-04-19T11:33:06.393Z,24.49
2023-04-19T11:35:38.734Z,25.50
2023-04-19T11:38:09.201Z,26.31
2023-04-19T11:40:42.635Z,27.07
2023-04-19T11:43:13.204Z,27.39
2023-04-19T11:45:45.499Z,27.70
2023-04-19T11:48:18.274Z,27.83
2023-04-19T11:50:50.212Z,27.44
2023-04-19T11:53:21.848Z,26.60
2023-04-19T11:55:58.047Z,26.51
2023-04-19T11:58:33.536Z,26.13
2023-04-19T12:01:09.671Z,26.54
2023-04-19T12:03:46.447Z,26.47
2023-04-19T12:06:19.143Z,26.09
2023-04-19T12:08:51.380Z,26.47
2023-04-19T12:11:26.812Z,26.37
2023-04-19T12:14:11.526Z,27.15
2023-04-19T12:16:42.486Z,27.28
2023-04-19T12:19:20.822Z,26.45
2023-04-19T12:21:51.238Z,28.46
2023-04-19T12:24:21.596Z,29.07
2023-04-19T12:27:01.919Z,27.80
2023-04-19T12:29:33.931Z,27.50
2023-04-19T12:32:04.251Z,26.18
2023-04-19T12:34:34.515Z,26.59
2023-04-19T12:37:05.161Z,25.31
2023-04-19T12:39:35.300Z,25.00
2023-04-19T12:42:08.861Z,24.05
2023-04-19T12:44:39.299Z,24.45
2023-04-19T12:47:24.611Z,24.63
2023-04-19T12:49:56.240Z,23.73
2023-04-19T12:52:26.687Z,23.21
2023-04-19T12:54:56.883Z,23.63
2023-04-19T12:57:30.487Z,23.54
2023-04-19T13:00:01.016Z,23.78
2023-04-19T13:02:32.243Z,23.72
2023-04-19T13:05:03.139Z,23.08
2023-04-19T13:07:33.551Z,22.58
2023-04-19T13:10:03.840Z,22.37
2023-04-19T13:12:36.780Z,23.17
2023-04-19T13:15:10.994Z,24.36
2023-04-19T13:17:41.350Z,25.33
2023-04-19T13:20:12.853Z,25.79
2023-04-19T13:22:43.015Z,26.34
2023-04-19T13:25:13.741Z,26.61
2023-04-19T13:27:47.323Z,26.58
2023-04-19T13:30:18.541Z,27.43
2023-04-19T13:32:48.949Z,28.03
2023-04-19T13:35:19.304Z,29.11
2023-04-19T13:37:51.534Z,28.83
2023-04-19T13:40:22.269Z,29.24
2023-04-19T13:42:56.925Z,28.29
2023-04-19T13:45:27.696Z,28.29
2023-04-19T13:47:58.268Z,28.79
2023-04-19T13:50:28.672Z,28.53
2023-04-19T13:52:59.270Z,28.51
2023-04-19T13:55:30.163Z,29.19
2023-04-19T13:58:03.497Z,30.53
2023-04-19T14:00:37.725Z,32.38
2023-04-19T14:03:08.492Z,33.43
2023-04-19T14:05:39.142Z,33.58
2023-04-19T14:08:09.628Z,33.23
2023-04-19T14:10:40.798Z,33.21
2023-04-19T14:13:14.684Z,32.57
2023-04-19T14:15:45.246Z,31.72
2023-04-19T14:18:15.442Z,31.64
2023-04-19T14:20:45.873Z,31.70
2023-04-19T14:23:16.267Z,31.46
2023-04-19T14:25:46.610Z,31.57
2023-04-19T14:28:19.532Z,31.57
2023-04-19T14:30:49.734Z,31.96
2023-04-19T14:33:19.877Z,32.37
2023-04-19T14:35:50.245Z,32.26
2023-04-19T14:38:20.373Z,33.07
2023-04-19T14:40:50.649Z,33.14
2023-04-19T14:43:23.374Z,33.22
2023-04-19T14:45:56.738Z,33.58
2023-04-19T14:48:27.943Z,33.79
2023-04-19T14:50:59.300Z,33.90
2023-04-19T14:53:29.641Z,34.07
2023-04-19T14:56:00.347Z,35.31
2023-04-19T14:58:35.278Z,35.93
2023-04-19T15:01:14.530Z,37.26
2023-04-19T15:03:45.330Z,38.62
2023-04-19T15:06:15.901Z,39.90
2023-04-19T15:08:47.274Z,40.93
2023-04-19T15:11:18.216Z,43.10
2023-04-19T15:13:51.209Z,44.49
2023-04-19T15:16:21.421Z,45.18
2023-04-19T15:18:51.940Z,45.93
2023-04-19T15:21:24.901Z,47.03
2023-04-19T15:24:01.484Z,48.01
2023-04-19T15:26:31.920Z,48.74
2023-04-19T15:29:05.115Z,49.43
2023-04-19T15:31:37.302Z,49.90
2023-04-19T15:34:08.128Z,50.48
2023-04-19T15:36:40.148Z,50.45
2023-04-19T15:39:10.626Z,50.54
2023-04-19T15:41:41.452Z,50.24
2023-04-19T15:44:14.433Z,50.42
2023-04-19T15:46:44.833Z,50.24
2023-04-19T15:49:15.527Z,50.18
2023-04-19T15:51:45.815Z,49.76
2023-04-19T15:54:17.659Z,49.94
2023-04-19T15:56:53.118Z,49.29
2023-04-19T15:59:26.288Z,49.95
2023-04-19T16:01:56.509Z,49.90
2023-04-19T16:04:26.844Z,49.46
2023-04-19T16:06:56.984Z,49.72
2023-04-19T16:09:27.156Z,49.43
2023-04-19T16:11:57.372Z,49.84
2023-04-19T16:14:30.231Z,50.18
2023-04-19T16:17:03.172Z,50.04
2023-04-19T16:19:36.472Z,49.94
2023-04-19T16:22:06.866Z,49.66
2023-04-19T16:24:37.366Z,50.40
2023-04-19T16:27:07.972Z,50.70
2023-04-19T16:29:41.376Z,51.08
2023-04-19T16:32:12.682Z,50.96
2023-04-19T16:34:42.888Z,50.71
2023-04-19T16:37:13.244Z,50.97
2023-04-19T16:39:43.724Z,50.79
2023-04-19T16:42:13.986Z,50.87
2023-04-19T16:44:46.818Z,51.11
2023-04-19T16:47:16.970Z,50.99
2023-04-19T16:49:48.081Z,50.84
2023-04-19T16:52:20.043Z,51.13
2023-04-19T16:54:52.995Z,51.14
2023-04-19T16:57:23.988Z,51.23
2023-04-19T16:59:57.038Z,51.27
2023-04-19T17:02:33.158Z,51.53
2023-04-19T17:05:04.017Z,51.37
2023-04-19T17:07:34.910Z,51.84
2023-04-19T17:10:06.005Z,52.27
2023-04-19T17:12:36.617Z,52.54
2023-04-19T17:15:10.302Z,52.80
2023-04-19T17:17:41.417Z,52.97
2023-04-19T17:20:13.939Z,53.12
2023-04-19T17:22:44.205Z,53.75
2023-04-19T17:25:14.424Z,53.56
2023-04-19T17:27:44.640Z,53.37
2023-04-19T17:30:18.118Z,53.20
2023-04-19T17:32:48.405Z,53.24
2023-04-19T17:35:18.901Z,53.87
2023-04-19T17:37:49.108Z,53.86
2023-04-19T17:40:19.441Z,53.53
2023-04-19T17:42:49.669Z,53.88
2023-04-19T17:45:25.333Z,54.04
2023-04-19T17:47:58.767Z,53.90
2023-04-19T17:50:37.349Z,53.82
2023-04-19T17:53:08.073Z,54.11
2023-04-19T17:55:40.181Z,54.10
2023-04-19T17:58:17.808Z,54.10
2023-04-19T18:00:51.272Z,54.22
2023-04-19T18:03:22.177Z,54.36
2023-04-19T18:05:53.149Z,53.87
2023-04-19T18:08:23.975Z,54.19
2023-04-19T18:10:54.566Z,54.56
2023-04-19T18:13:27.839Z,54.65
2023-04-19T18:16:05.359Z,54.55
2023-04-19T18:18:38.848Z,54.59
2023-04-19T18:21:09.711Z,54.47
2023-04-19T18:23:41.297Z,54.71
2023-04-19T18:26:15.986Z,55.27
2023-04-19T18:28:50.670Z,55.67
2023-04-19T18:31:25.891Z,55.34
2023-04-19T18:33:56.529Z,55.47
2023-04-19T18:36:30.205Z,55.36
2023-04-19T18:39:12.215Z,55.45
2023-04-19T18:41:46.603Z,55.50
2023-04-19T18:44:34.634Z,55.84
2023-04-19T18:47:14.380Z,55.68
2023-04-19T18:49:55.612Z,55.75
2023-04-19T18:52:48.573Z,55.71
2023-04-19T18:55:23.674Z,56.02
2023-04-19T18:57:55.412Z,56.09
2023-04-19T19:00:35.540Z,55.87
2023-04-19T19:03:29.097Z,55.83
2023-04-19T19:06:05.087Z,55.63
2023-04-19T19:08:39.618Z,55.92
2023-04-19T19:13:45.611Z,55.94
2023-04-19T19:16:23.382Z,56.08
2023-04-19T19:18:56.631Z,56.36
2023-04-19T19:21:32.805Z,56.36
2023-04-19T19:24:06.634Z,56.47
2023-04-19T19:26:39.069Z,56.51
2023-04-19T19:29:09.802Z,56.35
2023-04-19T19:31:45.488Z,56.40
2023-04-19T19:34:28.718Z,56.46
2023-04-19T19:37:00.978Z,56.44
2023-04-19T19:39:33.791Z,56.40
2023-04-19T19:42:13.995Z,56.60
2023-04-19T19:44:44.786Z,56.62
2023-04-19T19:47:19.987Z,56.76
2023-04-19T19:50:41.046Z,56.54
2023-04-19T19:52:48.189Z,56.48
2023-04-19T19:55:18.907Z,56.56
2023-04-19T19:58:25.735Z,56.87
2023-04-19T20:00:47.019Z,56.81
2023-04-19T20:03:36.085Z,56.78
2023-04-19T20:08:52.513Z,56.44
2023-04-19T20:11:23.105Z,56.66
2023-04-19T20:13:57.760Z,56.69
2023-04-19T20:16:29.461Z,56.78
2023-04-19T20:19:09.774Z,56.82
2023-04-19T20:21:48.025Z,56.90
2023-04-19T20:24:21.315Z,56.90
2023-04-19T20:26:52.637Z,57.09
2023-04-19T20:29:40.191Z,57.23
2023-04-19T20:32:11.390Z,57.09
2023-04-19T20:34:43.181Z,56.92
2023-04-19T20:37:20.522Z,57.06
2023-04-19T20:39:52.408Z,57.24
2023-04-19T20:42:24.180Z,57.17
2023-04-19T20:44:57.393Z,56.91
2023-04-19T20:47:46.327Z,57.01
2023-04-19T20:50:26.569Z,56.84
2023-04-19T20:52:59.652Z,57.22
2023-04-19T20:55:30.277Z,57.13
2023-04-19T20:58:00.439Z,57.08
2023-04-19T21:00:30.788Z,56.86
2023-04-19T21:03:01.172Z,56.89
2023-04-19T21:05:35.301Z,56.83
2023-04-19T21:08:11.488Z,57.11
2023-04-19T21:10:41.571Z,57.19
2023-04-19T21:13:12.155Z,57.03
2023-04-19T21:15:42.964Z,57.27
2023-04-19T21:18:13.753Z,56.94
2023-04-19T21:20:44.640Z,56.80
2023-04-19T21:23:17.361Z,57.09
2023-04-19T21:25:48.577Z,57.22
2023-04-19T21:28:19.267Z,57.19
2023-04-19T21:30:49.549Z,57.28
2023-04-19T21:33:20.193Z,57.42
2023-04-19T21:35:52.053Z,57.12
2023-04-19T21:38:27.800Z,57.35
2023-04-19T21:40:59.319Z,57.46
2023-04-19T21:43:33.725Z,57.21
2023-04-19T21:46:05.892Z,57.47
2023-04-19T21:48:37.062Z,57.79
2023-04-19T21:51:08.529Z,57.66
2023-04-19T21:53:45.002Z,57.92
2023-04-19T21:56:15.777Z,57.86
2023-04-19T21:58:48.598Z,58.02
2023-04-19T22:01:19.278Z,57.98
2023-04-19T22:03:49.706Z,57.72
2023-04-19T22:06:22.264Z,57.79
2023-04-19T22:09:06.197Z,57.51
2023-04-19T22:11:37.688Z,57.42
2023-04-19T22:14:07.975Z,57.51
2023-04-19T22:16:38.382Z,57.54
2023-04-19T22:19:08.933Z,57.77
2023-04-19T22:21:39.553Z,57.77
2023-04-19T22:24:12.990Z,57.67
2023-04-19T22:26:46.478Z,57.65
2023-04-19T22:29:18.466Z,57.68
2023-04-19T22:31:49.351Z,57.43
2023-04-19T22:34:22.798Z,57.33
2023-04-19T22:36:58.605Z,57.55
2023-04-19T22:39:35.295Z,57.74
2023-04-19T22:42:05.521Z,57.38
2023-04-19T22:44:36.001Z,57.22
2023-04-19T22:47:08.371Z,57.11
2023-04-19T22:49:38.675Z,57.02
2023-04-19T22:52:10.588Z,57.19
2023-04-19T22:54:45.580Z,57.35
2023-04-19T22:57:17.093Z,57.22
2023-04-19T22:59:51.320Z,57.22
2023-04-19T23:02:21.894Z,57.00
2023-04-19T23:04:52.351Z,57.13
2023-04-19T23:07:23.751Z,57.21
2023-04-19T23:09:59.512Z,57.06
2023-04-19T23:12:33.847Z,56.97
2023-04-19T23:15:06.411Z,56.73
2023-04-19T23:17:40.164Z,56.74
2023-04-19T23:20:15.198Z,56.85
2023-04-19T23:22:50.214Z,56.68
2023-04-19T23:25:25.456Z,57.05
2023-04-19T23:27:56.901Z,56.60
2023-04-19T23:30:29.263Z,56.85
2023-04-19T23:33:01.787Z,57.03
2023-04-19T23:35:32.274Z,57.39
2023-04-19T23:38:05.010Z,57.18
2023-04-19T23:40:38.584Z,57.08
2023-04-19T23:43:14.612Z,57.01
2023-04-19T23:45:45.384Z,57.05
2023-04-19T23:48:25.135Z,57.38
2023-04-19T23:50:57.136Z,57.62
2023-04-19T23:53:27.536Z,57.42
2023-04-19T23:56:11.547Z,57.28
2023-04-19T23:58:43.795Z,57.34
